tititudorancea.com
Station Historical Data
Daily Summary for January 17, 2019 Units:  Metric    English   Both
« Previous Day
Next Day »
Daily Weekly Monthly Yearly Custom
  High: Low: Average:
Temperature: -17.8 °C 21.3 °C 26.9 °C
Dew Point: -17.8 °C 11.7 °C 14.1 °C
Humidity: Humidity % 30 % 46 %
Wind Speed: 0 km/h 0 km/h 9.5 km/h
Wind Gust: 0 km/h - -
Wind:- - SW
Pressure: 0 hPa 1003.9 hPa -
Precipitation: 0 mm    
Historical Graphs
 
 
Ararat weather Find more about Weather in Ararat, AU


 



 


Tabular Data for January 17, 2019
Time Temperature Dew Point Pressure Wind Wind Speed Wind Gust Humidity Rainfall Rate (Hourly)
-17.8 °C -17.8 °C 0 hPa Calm     Humidity % 0 mm
00:04 22.7 °C 13.2 °C 1006.3 hPa Calm     55 % 0 mm
00:09 22.6 °C 13.1 °C 1006.3 hPa Calm     55 % 0 mm
00:14 22.5 °C 13.3 °C 1006.3 hPa Calm     56 % 0 mm
00:19 22.4 °C 13.2 °C 1006.3 hPa Calm     56 % 0 mm
00:24 22.3 °C 13.1 °C 1006 hPa Calm     56 % 0 mm
00:29 22.1 °C 13.2 °C 1006 hPa Calm     57 % 0 mm
00:34 21.9 °C 13 °C 1006 hPa Calm     57 % 0 mm
00:39 21.8 °C 13.2 °C 1006 hPa Calm     58 % 0 mm
00:44 21.6 °C 13 °C 1006.3 hPa Calm     58 % 0 mm
00:49 21.5 °C 13.2 °C 1006 hPa Calm     59 % 0 mm
00:54 21.4 °C 13.1 °C 1006 hPa Calm     59 % 0 mm
00:59 21.3 °C 13.2 °C 1006.3 hPa Calm     60 % 0 mm
01:04 21.3 °C 13.2 °C 1006.3 hPa Calm     60 % 0 mm
01:09 21.3 °C 12.9 °C 1006 hPa SE 3.7 km/h 1.9 km/h 59 % 0 mm
01:14 21.4 °C 13.1 °C 1006 hPa Calm     59 % 0 mm
01:19 21.4 °C 12.8 °C 1006 hPa Calm     58 % 0 mm
01:24 21.6 °C 12.4 °C 1006 hPa Calm     56 % 0 mm
01:29 21.7 °C 13.1 °C 1006 hPa Calm     58 % 0 mm
01:34 21.7 °C 12.8 °C 1006.3 hPa Calm     57 % 0 mm
01:39 21.8 °C 12.9 °C 1006.3 hPa Calm     57 % 0 mm
01:44 21.9 °C 13 °C 1006.3 hPa Calm     57 % 0 mm
01:49 21.9 °C 13.3 °C 1006.7 hPa Calm     58 % 0 mm
01:54 21.9 °C 13.1 °C 1006.3 hPa Calm     57 % 0 mm
01:59 22 °C 13.1 °C 1006.3 hPa Calm     57 % 0 mm
02:04 22.1 °C 13.4 °C 1006.3 hPa SE 3.2 km/h 1.9 km/h 58 % 0 mm
02:09 22.2 °C 12.2 °C 1006 hPa SE 6.4 km/h 5 km/h 53 % 0 mm
02:14 22.6 °C 12.3 °C 1006 hPa SE 9.3 km/h 5.8 km/h 52 % 0 mm
02:19 22.8 °C 12.4 °C 1006.3 hPa SE 9.3 km/h 5.3 km/h 52 % 0 mm
02:24 23 °C 12.3 °C 1006.3 hPa SE 6.4 km/h 3.5 km/h 51 % 0 mm
02:29 23 °C 12.3 °C 1006 hPa SE 6.4 km/h 3.9 km/h 51 % 0 mm
02:34 23 °C 12.3 °C 1006 hPa SE 7.4 km/h 5.3 km/h 51 % 0 mm
02:39 23.1 °C 12.1 °C 1006 hPa SE 8 km/h 6.3 km/h 50 % 0 mm
02:44 23.3 °C 11.9 °C 1006 hPa SE 5.6 km/h 3.4 km/h 49 % 0 mm
02:49 23.7 °C 12 °C 1006.3 hPa SE 9.7 km/h 4.8 km/h 48 % 0 mm
02:54 24.2 °C 11.8 °C 1006.7 hPa SE 11.1 km/h 4.2 km/h 46 % 0 mm
02:59 24.7 °C 11.7 °C 1006.3 hPa SE 14.5 km/h 6.9 km/h 44 % 0 mm
03:04 25.3 °C 11.8 °C 1006.3 hPa SE 11.1 km/h 8.2 km/h 43 % 0 mm
03:09 25.3 °C 12.9 °C 1006.3 hPa SE 9.3 km/h 6.8 km/h 46 % 0 mm
03:14 24.9 °C 13.5 °C 1006.3 hPa SE 7.4 km/h 5 km/h 49 % 0 mm
03:19 24.7 °C 13.6 °C 1005.6 hPa SE 9.3 km/h 7.1 km/h 50 % 0 mm
03:24 24.5 °C 14 °C 1005.6 hPa SE 9.3 km/h 4.2 km/h 52 % 0 mm
03:29 24.1 °C 13.9 °C 1005.3 hPa SE 7.4 km/h 7.2 km/h 53 % 0 mm
03:34 23.8 °C 14.2 °C 1005.3 hPa SE 9.7 km/h 6.9 km/h 55 % 0 mm
03:39 23.5 °C 13.9 °C 1005.3 hPa SE 7.4 km/h 1.4 km/h 55 % 0 mm
03:44 23.3 °C 14.1 °C 1005.3 hPa Calm     56 % 0 mm
03:49 23.2 °C 14.2 °C 1005.3 hPa Calm     57 % 0 mm
03:54 23 °C 14.8 °C 1005 hPa SE 3.7 km/h 0.6 km/h 60 % 0 mm
03:59 22.7 °C 14.3 °C 1005 hPa SE 7.4 km/h 4.7 km/h 59 % 0 mm
04:04 22.5 °C 14.1 °C 1004.6 hPa SE 5.6 km/h 4.7 km/h 59 % 0 mm
04:09 22.5 °C 14.3 °C 1004.6 hPa SE 6.4 km/h 3.7 km/h 60 % 0 mm
04:14 22.5 °C 14.6 °C 1004.6 hPa SE 6.4 km/h 5 km/h 61 % 0 mm
04:19 22.5 °C 14.6 °C 1004.3 hPa SE 3.7 km/h 2.1 km/h 61 % 0 mm
04:24 22.5 °C 14.3 °C 1004.3 hPa SE 8 km/h 5.5 km/h 60 % 0 mm
04:29 22.8 °C 13.8 °C 1003.9 hPa SE 9.3 km/h 2.7 km/h 57 % 0 mm
04:34 23.2 °C 13.7 °C 1004.3 hPa SE 7.4 km/h 2.4 km/h 55 % 0 mm
04:39 23.5 °C 13.4 °C 1004.3 hPa SE 7.4 km/h 1.4 km/h 53 % 0 mm
04:44 23.7 °C 13.2 °C 1004.3 hPa SE 3.7 km/h 1.9 km/h 52 % 0 mm
04:49 23.8 °C 13.1 °C 1003.9 hPa SE 3.7 km/h 1.9 km/h 51 % 0 mm
04:54 23.9 °C 13.1 °C 1004.3 hPa SE 5.6 km/h 4.2 km/h 51 % 0 mm
04:59 24 °C 12.9 °C 1004.3 hPa SE 5.6 km/h 3.4 km/h 50 % 0 mm
05:04 24.2 °C 13.1 °C 1004.3 hPa SE 6.4 km/h 3.1 km/h 50 % 0 mm
05:09 24.3 °C 13.2 °C 1004.6 hPa SE 5.6 km/h 3.5 km/h 50 % 0 mm
05:14 24.4 °C 13.1 °C 1005 hPa SE 8 km/h 5.6 km/h 49 % 0 mm
05:19 24.6 °C 12.9 °C 1005 hPa SE 7.4 km/h 4.3 km/h 48 % 0 mm
05:24 24.7 °C 12.9 °C 1005 hPa SE 6.4 km/h 3.7 km/h 48 % 0 mm
05:29 24.8 °C 13 °C 1005 hPa SE 7.4 km/h 6.1 km/h 48 % 0 mm
05:34 25 °C 12.9 °C 1005.3 hPa SE 11.1 km/h 9.2 km/h 47 % 0 mm
05:39 25.6 °C 12.7 °C 1005.6 hPa SE 13 km/h 8 km/h 45 % 0 mm
05:44 26.1 °C 12.8 °C 1005.6 hPa East 18.5 km/h 10.1 km/h 44 % 0 mm
05:49 26.1 °C 12.9 °C 1005.6 hPa East 11.1 km/h 6.6 km/h 44 % 0 mm
05:54 26.1 °C 12.9 °C 1005.6 hPa ENE 9.3 km/h 6.9 km/h 44 % 0 mm
05:59 26.3 °C 12.7 °C 1005.6 hPa ENE 9.3 km/h 7.6 km/h 43 % 0 mm
06:04 26.4 °C 12.8 °C 1005.6 hPa ENE 9.7 km/h 6 km/h 43 % 0 mm
06:09 26.4 °C 12.8 °C 1005.6 hPa ENE 8 km/h 5.8 km/h 43 % 0 mm
06:14 26.5 °C 12.6 °C 1005.6 hPa ENE 9.3 km/h 7.2 km/h 42 % 0 mm
06:19 26.6 °C 12.6 °C 1006 hPa ENE 11.1 km/h 7.2 km/h 42 % 0 mm
06:24 26.7 °C 12.4 °C 1006.3 hPa ENE 7.4 km/h 8.2 km/h 41 % 0 mm
06:29 27.4 °C 12.6 °C 1006.7 hPa NW 18.5 km/h 11.4 km/h 40 % 0 mm
06:34 28.8 °C 12.7 °C 1006.7 hPa WNW 25.9 km/h 18.8 km/h 37 % 0 mm
06:39 29.4 °C 12.3 °C 1006.7 hPa WNW 24.1 km/h 19 km/h 35 % 0 mm
06:44 29.6 °C 12.5 °C 1006.7 hPa WNW 22.2 km/h 14 km/h 35 % 0 mm
06:49 29.5 °C 12.4 °C 1006.7 hPa WNW 31.5 km/h 18 km/h 35 % 0 mm
06:54 29.3 °C 12.3 °C 1006.7 hPa West 31.5 km/h 17.9 km/h 35 % 0 mm
06:59 28.9 °C 12.4 °C 1006.7 hPa WNW 24.1 km/h 15 km/h 36 % 0 mm
07:04 28.6 °C 12.4 °C 1007 hPa West 18.5 km/h 14.2 km/h 37 % 0 mm
07:09 28.1 °C 12.4 °C 1006.7 hPa West 18.5 km/h 11.3 km/h 38 % 0 mm
07:14 27.7 °C 12.4 °C 1006.7 hPa West 14.8 km/h 10.9 km/h 39 % 0 mm
07:19 27.3 °C 12.6 °C 1007 hPa North 11.1 km/h 9 km/h 40 % 0 mm
07:24 27.1 °C 12.3 °C 1007.3 hPa North 13 km/h 8.2 km/h 40 % 0 mm
07:29 27 °C 12.6 °C 1007.3 hPa North 13 km/h 7.9 km/h 41 % 0 mm
07:34 26.8 °C 12.8 °C 1007.3 hPa WSW 5.6 km/h 4.8 km/h 42 % 0 mm
07:39 26.7 °C 12.7 °C 1007.3 hPa WSW 9.3 km/h 8.7 km/h 42 % 0 mm
07:44 26.8 °C 12.8 °C 1007.3 hPa WSW 5.6 km/h 4.2 km/h 42 % 0 mm
07:49 26.8 °C 12.8 °C 1007.7 hPa WSW 7.4 km/h 2.7 km/h 42 % 0 mm
07:54 26.8 °C 12.8 °C 1007.3 hPa North 1.9 km/h 1.8 km/h 42 % 0 mm
07:59 26.8 °C 13.2 °C 1007.3 hPa North 5.6 km/h 6.1 km/h 43 % 0 mm
08:04 26.6 °C 13 °C 1007.3 hPa North 7.4 km/h 4.2 km/h 43 % 0 mm
08:09 26.6 °C 12.9 °C 1007.7 hPa WSW 1.9 km/h   43 % 0 mm
08:14 26.5 °C 12.9 °C 1007.7 hPa WSW 3.7 km/h 2.4 km/h 43 % 0 mm
08:19 26.5 °C 13.3 °C 1008 hPa WSW 1.9 km/h 0.3 km/h 44 % 0 mm
08:24 26.4 °C 13.2 °C 1008 hPa WSW 5.6 km/h 3.7 km/h 44 % 0 mm
08:29 26.3 °C 13.4 °C 1008 hPa WSW 8 km/h 5.5 km/h 45 % 0 mm
08:34 26.2 °C 13.3 °C 1008 hPa WSW 5.6 km/h 1.9 km/h 45 % 0 mm
08:39 26.2 °C 13.3 °C 1008.4 hPa WSW 3.7 km/h 0.8 km/h 45 % 0 mm
08:44 26.1 °C 13.6 °C 1008.4 hPa WSW 3.2 km/h 1.9 km/h 46 % 0 mm
08:49 26 °C 13.5 °C 1008 hPa WSW 4.8 km/h 2.6 km/h 46 % 0 mm
08:54 26 °C 13.5 °C 1008 hPa WSW 8 km/h 5.5 km/h 46 % 0 mm
08:59 26 °C 13.5 °C 1008 hPa North 5.6 km/h 4.5 km/h 46 % 0 mm
09:04 26 °C 13.5 °C 1008 hPa North 11.1 km/h 5 km/h 46 % 0 mm
09:09 25.9 °C 13.4 °C 1008 hPa West 6.4 km/h 2.9 km/h 46 % 0 mm
09:14 25.9 °C 14.1 °C 1007.7 hPa West 3.7 km/h   48 % 0 mm
09:19 25.9 °C 14.1 °C 1007.3 hPa West 5.6 km/h 1.3 km/h 48 % 0 mm
09:24 25.8 °C 13.9 °C 1007.7 hPa West 3.7 km/h 3.2 km/h 48 % 0 mm
09:29 25.7 °C 14.4 °C 1007.7 hPa Calm     50 % 0 mm
09:34 25.7 °C 15.4 °C 1007.7 hPa Calm     53 % 0 mm
09:39 25.7 °C 15.7 °C 1007.7 hPa Calm     54 % 0 mm
09:44 25.6 °C 15.3 °C 1007.7 hPa Calm     53 % 0 mm
09:49 25.4 °C 15.2 °C 1007.7 hPa Calm     53 % 0 mm
09:54 25.4 °C 15.1 °C 1008 hPa West 5.6 km/h 3.2 km/h 53 % 0 mm
09:59 25.5 °C 14.6 °C 1008 hPa West 5.6 km/h 1.6 km/h 51 % 0 mm
10:04 25.6 °C 14.4 °C 1008 hPa West 5.6 km/h 1.9 km/h 50 % 0 mm
10:09 25.8 °C 14.3 °C 1008 hPa West 3.7 km/h 3.2 km/h 49 % 0 mm
10:14 26 °C 14.1 °C 1008 hPa West 3.7 km/h 3.2 km/h 48 % 0 mm
10:19 26.3 °C 14.4 °C 1008 hPa West 5.6 km/h 2.6 km/h 48 % 0 mm
10:24 26.6 °C 14.1 °C 1008 hPa West 5.6 km/h 2.4 km/h 46 % 0 mm
10:29 26.8 °C 13.9 °C 1007.7 hPa West 7.4 km/h 5 km/h 45 % 0 mm
10:34 27.6 °C 13.2 °C 1007.3 hPa West 13 km/h 9.5 km/h 41 % 0 mm
10:39 28.3 °C 13.4 °C 1007.3 hPa West 9.3 km/h 8.5 km/h 40 % 0 mm
10:44 28.7 °C 13.3 °C 1007 hPa West 5.6 km/h 4.3 km/h 39 % 0 mm
10:49 28.8 °C 13.4 °C 1006.7 hPa WNW 13 km/h 9.3 km/h 39 % 0 mm
10:54 28.7 °C 13.7 °C 1006.7 hPa WNW 9.3 km/h 6.6 km/h 40 % 0 mm
10:59 28.6 °C 13.7 °C 1006.7 hPa WNW 6.4 km/h 3.5 km/h 40 % 0 mm
11:04 28.8 °C 13.8 °C 1006.3 hPa WNW 4.8 km/h 1.4 km/h 40 % 0 mm
11:09 29 °C 14.4 °C 1006 hPa WNW 5.6 km/h 4.7 km/h 41 % 0 mm
11:14 29.4 °C 14.4 °C 1006 hPa WNW 5.6 km/h 3.5 km/h 40 % 0 mm
11:19 30 °C 13.7 °C 1006 hPa WNW 7.4 km/h 5.8 km/h 37 % 0 mm
11:24 30.6 °C 13.8 °C 1006.3 hPa WNW 13 km/h 10.1 km/h 36 % 0 mm
11:29 31.1 °C 13.8 °C 1006.3 hPa NW 18.5 km/h 11.7 km/h 35 % 0 mm
11:34 31.2 °C 13.9 °C 1006.3 hPa NW 16.7 km/h 10 km/h 35 % 0 mm
11:39 31.2 °C 13.9 °C 1006.7 hPa WNW 14.8 km/h 7.4 km/h 35 % 0 mm
11:44 31.4 °C 13.2 °C 1006.7 hPa WNW 22.5 km/h 14.8 km/h 33 % 0 mm
11:49 31.6 °C 13.4 °C 1006.7 hPa WNW 18.5 km/h 12.7 km/h 33 % 0 mm
11:54 31.8 °C 13.6 °C 1006.7 hPa North 18.5 km/h 10.6 km/h 33 % 0 mm
11:59 32.1 °C 13.3 °C 1007 hPa WNW 24.1 km/h 16.3 km/h 32 % 0 mm
12:04 32.4 °C 13.1 °C 1007 hPa North 22.5 km/h 15.8 km/h 31 % 0 mm
12:09 32.5 °C 12.7 °C 1007 hPa WNW 25.9 km/h 18.3 km/h 30 % 0 mm
12:14 32.5 °C 13.2 °C 1007 hPa WSW 20.9 km/h 18.5 km/h 31 % 0 mm
12:19 32.4 °C 13.1 °C 1007 hPa West 35.2 km/h 23.7 km/h 31 % 0 mm
12:24 32.4 °C 13.1 °C 1007 hPa West 27.8 km/h 22.7 km/h 31 % 0 mm
12:29 32.2 °C 13.4 °C 1007.3 hPa West 25.9 km/h 21.4 km/h 32 % 0 mm
12:34 31.8 °C 13.6 °C 1007.3 hPa West 29 km/h 25.4 km/h 33 % 0 mm
12:39 31.7 °C 13.4 °C 1007.3 hPa WSW 31.5 km/h 21.2 km/h 33 % 0 mm
12:44 31.8 °C 14 °C 1007.3 hPa North 18.5 km/h 15.4 km/h 34 % 0 mm
12:49 31.8 °C 14 °C 1007.3 hPa West 22.2 km/h 14 km/h 34 % 0 mm
12:54 32.1 °C 14.2 °C 1007.3 hPa West 25.9 km/h 13.7 km/h 34 % 0 mm
12:59 32.7 °C 14.3 °C 1007.3 hPa West 27.8 km/h 20.1 km/h 33 % 0 mm
13:04 33.4 °C 14.4 °C 1007.7 hPa West 31.5 km/h 21.1 km/h 32 % 0 mm
13:09 33 °C 14.1 °C 1007.7 hPa WSW 32.2 km/h 25.6 km/h 32 % 0 mm
13:14 31.7 °C 14.4 °C 1008 hPa North 37 km/h 34.8 km/h 35 % 0 mm
13:19 31.2 °C 14.8 °C 1008 hPa SW 37 km/h 27.8 km/h 37 % 0 mm
13:24 30.8 °C 14.9 °C 1008 hPa WSW 33.3 km/h 16.9 km/h 38 % 0 mm
13:29 30.5 °C 14.6 °C 1008 hPa SW 27.8 km/h 25.1 km/h 38 % 0 mm
13:34 30.3 °C 14.8 °C 1008 hPa WSW 29.6 km/h 15.1 km/h 39 % 0 mm
13:39 30 °C 14.9 °C 1007.7 hPa West 27.8 km/h 24.6 km/h 40 % 0 mm
13:44 29.4 °C 15.2 °C 1007.7 hPa SW 22.2 km/h 16.7 km/h 42 % 0 mm
13:49 28.8 °C 15.7 °C 1007.3 hPa SW 16.7 km/h 10.3 km/h 45 % 0 mm
13:54 27.8 °C 16.1 °C 1007.3 hPa SW 16.7 km/h 9.3 km/h 49 % 0 mm
13:59 27.3 °C 16.3 °C 1007.3 hPa SW 9.3 km/h 5.1 km/h 51 % 0 mm
14:04 26.9 °C 16.8 °C 1007.3 hPa SW 5.6 km/h 2.7 km/h 54 % 0 mm
14:09 26.8 °C 17 °C 1007 hPa SW 4.8 km/h 4.2 km/h 55 % 0 mm
14:14 26.8 °C 16.7 °C 1006.7 hPa SW 5.6 km/h 1.1 km/h 54 % 0 mm
14:19 27 °C 17.2 °C 1006.7 hPa SW 6.4 km/h 4.2 km/h 55 % 0 mm
14:24 27.3 °C 16.9 °C 1007 hPa SW 6.4 km/h 6 km/h 53 % 0 mm
14:29 27.6 °C 16.9 °C 1007 hPa SW 5.6 km/h 3.7 km/h 52 % 0 mm
14:34 27.8 °C 16.8 °C 1007 hPa SW 6.4 km/h 4.3 km/h 51 % 0 mm
14:39 28 °C 16.3 °C 1006.7 hPa SW 6.4 km/h 4.3 km/h 49 % 0 mm
14:44 28.2 °C 16.1 °C 1006.7 hPa SW 3.7 km/h 0.2 km/h 48 % 0 mm
14:49 28.3 °C 15.9 °C 1006.3 hPa SW 5.6 km/h 1.8 km/h 47 % 0 mm
14:54 28.4 °C 16.7 °C 1006.3 hPa SW 1.9 km/h   49 % 0 mm
14:59 28.4 °C 17.3 °C 1006 hPa SW 1.9 km/h   51 % 0 mm
15:04 28.4 °C 18.2 °C 1006.3 hPa Calm     54 % 0 mm
15:09 28.2 °C 18 °C 1006 hPa Calm     54 % 0 mm
15:14 27.9 °C 18.6 °C 1006 hPa SW 3.7 km/h 2.4 km/h 57 % 0 mm
15:19 27.7 °C 18.4 °C 1006.3 hPa SW 7.4 km/h 5.1 km/h 57 % 0 mm
15:24 27.7 °C 17.8 °C 1006.3 hPa SW 5.6 km/h 2.9 km/h 55 % 0 mm
15:29 27.8 °C 17.4 °C 1006 hPa SW 3.7 km/h 0.8 km/h 53 % 0 mm
15:34 28.1 °C 17.6 °C 1006 hPa Calm     53 % 0 mm
15:39 28.3 °C 17.2 °C 1006 hPa Calm     51 % 0 mm
15:44 28.5 °C 17.1 °C 1006 hPa SW 1.9 km/h   50 % 0 mm
15:49 28.8 °C 17.7 °C 1006 hPa SW 3.7 km/h 0.5 km/h 51 % 0 mm
15:54 29.1 °C 17.6 °C 1006 hPa SW 3.7 km/h   50 % 0 mm
15:59 29.3 °C 15.4 °C 1006 hPa SW 9.3 km/h 7.9 km/h 43 % 0 mm
16:04 29.7 °C 15.4 °C 1006 hPa SW 5.6 km/h 6 km/h 42 % 0 mm
16:09 29.9 °C 14.8 °C 1006 hPa SW 5.6 km/h 5.8 km/h 40 % 0 mm
16:14 30.2 °C 15.1 °C 1006.3 hPa SW 11.3 km/h 6.4 km/h 40 % 0 mm
16:19 30.5 °C 13.3 °C 1006 hPa North 33.3 km/h 22.4 km/h 35 % 0 mm
16:24 30.9 °C 13.2 °C 1006 hPa West 18.5 km/h 15.8 km/h 34 % 0 mm
16:29 30.9 °C 13.7 °C 1006 hPa West 14.8 km/h 8.7 km/h 35 % 0 mm
16:34 30.8 °C 13.6 °C 1006 hPa West 11.3 km/h 10.3 km/h 35 % 0 mm
16:39 30.6 °C 13.4 °C 1006 hPa West 11.1 km/h 6.1 km/h 35 % 0 mm
16:44 30.5 °C 13.7 °C 1006 hPa West 11.1 km/h 8.7 km/h 36 % 0 mm
16:49 30.4 °C 14.1 °C 1006 hPa West 13 km/h 9.2 km/h 37 % 0 mm
16:54 30.3 °C 13.9 °C 1005.6 hPa West 14.5 km/h 7.2 km/h 37 % 0 mm
16:59 30.2 °C 13.9 °C 1005.6 hPa West 11.1 km/h 8 km/h 37 % 0 mm
17:04 30.2 °C 13.9 °C 1005.6 hPa West 9.3 km/h 7.9 km/h 37 % 0 mm
17:09 30.1 °C 13.8 °C 1005.6 hPa West 9.3 km/h 7.9 km/h 37 % 0 mm
17:14 30.3 °C 13.9 °C 1005.6 hPa North 12.9 km/h 9.8 km/h 37 % 0 mm
17:19 30.6 °C 14.2 °C 1005.6 hPa WNW 13 km/h 10 km/h 37 % 0 mm
17:24 30.8 °C 14 °C 1005.6 hPa WNW 13 km/h 8.4 km/h 36 % 0 mm
17:29 30.8 °C 14 °C 1006 hPa WNW 20.4 km/h 13 km/h 36 % 0 mm
17:34 30.7 °C 13.9 °C 1006 hPa North 20.4 km/h 12.9 km/h 36 % 0 mm
17:39 30.7 °C 13.9 °C 1006 hPa North 9.7 km/h 9.5 km/h 36 % 0 mm
17:44 30.7 °C 13.9 °C 1006 hPa West 14.8 km/h 10.9 km/h 36 % 0 mm
17:49 30.7 °C 13.9 °C 1006 hPa West 14.8 km/h 11.9 km/h 36 % 0 mm
17:54 30.7 °C 13.5 °C 1006 hPa West 16.7 km/h 10.6 km/h 35 % 0 mm
17:59 30.8 °C 13.6 °C 1006 hPa West 18.5 km/h 19.2 km/h 35 % 0 mm
18:04 30.8 °C 13.6 °C 1006 hPa WSW 24.1 km/h 15 km/h 35 % 0 mm
18:09 30.7 °C 13.5 °C 1006 hPa West 17.7 km/h 13.4 km/h 35 % 0 mm
18:14 30.7 °C 13.9 °C 1006 hPa North 18.5 km/h 11.1 km/h 36 % 0 mm
18:19 30.6 °C 13.8 °C 1006 hPa WSW 20.4 km/h 17.4 km/h 36 % 0 mm
18:24 30.5 °C 13.7 °C 1006 hPa West 8 km/h 6.6 km/h 36 % 0 mm
18:29 30.5 °C 14.2 °C 1006 hPa WSW 14.8 km/h 10 km/h 37 % 0 mm
18:34 30.4 °C 14.1 °C 1006 hPa North 11.3 km/h 9.3 km/h 37 % 0 mm
18:39 30.4 °C 14.1 °C 1006 hPa WSW 18.5 km/h 9 km/h 37 % 0 mm
18:44 30.3 °C 13.9 °C 1006.3 hPa WSW 16.7 km/h 10.8 km/h 37 % 0 mm
18:49 30.2 °C 14.3 °C 1006.3 hPa West 13 km/h 11.4 km/h 38 % 0 mm
18:54 30.2 °C 14.3 °C 1006.3 hPa West 11.1 km/h 4.7 km/h 38 % 0 mm
18:59 30.1 °C 14.2 °C 1006.7 hPa West 9.3 km/h 3.5 km/h 38 % 0 mm
19:04 30.1 °C 14.6 °C 1006.7 hPa West 9.3 km/h 4.3 km/h 39 % 0 mm
19:09 29.9 °C 14.5 °C 1006.7 hPa West 16.7 km/h 9.3 km/h 39 % 0 mm
19:14 29.9 °C 14.4 °C 1006.7 hPa West 11.1 km/h 6 km/h 39 % 0 mm
19:19 29.8 °C 14.4 °C 1006.7 hPa West 7.4 km/h 7.1 km/h 39 % 0 mm
19:24 29.8 °C 14.7 °C 1006.7 hPa West 5.6 km/h 4.3 km/h 40 % 0 mm
19:29 29.7 °C 14.6 °C 1006.7 hPa West 5.6 km/h 4.5 km/h 40 % 0 mm
19:34 29.6 °C 14.6 °C 1007 hPa North 5.6 km/h 5.1 km/h 40 % 0 mm
19:39 29.5 °C 14.9 °C 1007 hPa West 13 km/h 5.1 km/h 41 % 0 mm
19:44 29.4 °C 14.4 °C 1007 hPa North 11.1 km/h 6.9 km/h 40 % 0 mm
19:49 29.4 °C 14.8 °C 1007.3 hPa West 5.6 km/h 5 km/h 41 % 0 mm
19:54 29.3 °C 14.7 °C 1007 hPa West 5.6 km/h 4.2 km/h 41 % 0 mm
19:59 29.2 °C 14.6 °C 1007 hPa West 5.6 km/h 4.7 km/h 41 % 0 mm
20:04 29.2 °C 14.9 °C 1007 hPa West 8 km/h 2.6 km/h 42 % 0 mm
20:09 29.2 °C 14.6 °C 1007 hPa WSW 11.1 km/h 7.4 km/h 41 % 0 mm
20:14 29.1 °C 14.5 °C 1007 hPa WSW 11.3 km/h 5.8 km/h 41 % 0 mm
20:19 29.1 °C 14.8 °C 1007 hPa WSW 7.4 km/h 5.1 km/h 42 % 0 mm
20:24 28.9 °C 14.7 °C 1007 hPa WSW 13 km/h 5.1 km/h 42 % 0 mm
20:29 28.7 °C 14.8 °C 1007 hPa SW 11.1 km/h 7.6 km/h 43 % 0 mm
20:34 28.5 °C 14.7 °C 1007 hPa SW 13 km/h 8.2 km/h 43 % 0 mm
20:39 28.3 °C 14.9 °C 1007 hPa SW 11.1 km/h 5.3 km/h 44 % 0 mm
20:44 28.2 °C 14.8 °C 1007 hPa SW 8 km/h 8.4 km/h 44 % 0 mm
20:49 28.1 °C 15 °C 1007 hPa SSW 11.1 km/h 9 km/h 45 % 0 mm
20:54 28 °C 14.9 °C 1007.3 hPa SW 18.5 km/h 11.1 km/h 45 % 0 mm
20:59 28 °C 14.9 °C 1007.3 hPa SSW 11.1 km/h 6.4 km/h 45 % 0 mm
21:04 27.9 °C 14.8 °C 1007.3 hPa SSW 16.7 km/h 12.9 km/h 45 % 0 mm
21:09 27.8 °C 14.8 °C 1007.3 hPa SSW 11.3 km/h 5.3 km/h 45 % 0 mm
21:14 27.7 °C 15 °C 1007.3 hPa SSW 11.3 km/h 9.7 km/h 46 % 0 mm
21:19 27.5 °C 14.8 °C 1007.3 hPa SSW 11.1 km/h 6.1 km/h 46 % 0 mm
21:24 27.3 °C 15.1 °C 1007.7 hPa SSW 11.1 km/h 8.5 km/h 47 % 0 mm
21:29 27.2 °C 15.2 °C 1007.7 hPa SSW 9.3 km/h 7.1 km/h 48 % 0 mm
21:34 27.1 °C 15.2 °C 1007.7 hPa SSW 9.3 km/h 5 km/h 48 % 0 mm
21:39 27.1 °C 15.1 °C 1007.7 hPa SSW 1.9 km/h 0.3 km/h 48 % 0 mm
21:44 26.9 °C 15.3 °C 1008 hPa SSW 1.9 km/h   49 % 0 mm
21:49 26.9 °C 15.3 °C 1008 hPa SSW 1.9 km/h   49 % 0 mm
21:54 26.7 °C 15.4 °C 1008 hPa Calm     50 % 0 mm
21:59 26.6 °C 15.3 °C 1008 hPa Calm     50 % 0 mm
22:04 26.4 °C 15.4 °C 1008 hPa SSW 1.6 km/h 0.2 km/h 51 % 0 mm
22:09 26.2 °C 15.6 °C 1008 hPa SSW 5.6 km/h 4 km/h 52 % 0 mm
22:14 25.8 °C 15.5 °C 1007.7 hPa SSW 5.6 km/h 2.1 km/h 53 % 0 mm
22:19 25.6 °C 15.6 °C 1007.7 hPa Calm     54 % 0 mm
22:24 25.3 °C 15.3 °C 1007.7 hPa SSW 4.8 km/h 2.3 km/h 54 % 0 mm
22:29 25.2 °C 15.3 °C 1007.3 hPa SSW 5.6 km/h 1.4 km/h 54 % 0 mm
22:34 25.2 °C 15.5 °C 1007.7 hPa SSW 5.6 km/h 4.2 km/h 55 % 0 mm
22:39 25.1 °C 15.4 °C 1008 hPa SSW 5.6 km/h 4.2 km/h 55 % 0 mm
22:44 25.2 °C 15.2 °C 1008 hPa SSW 3.7 km/h 1.4 km/h 54 % 0 mm
22:49 25.2 °C 15.6 °C 1008 hPa Calm     55 % 0 mm
22:54 25.1 °C 15.4 °C 1008 hPa Calm     55 % 0 mm
22:59 25 °C 15.3 °C 1007.7 hPa Calm     55 % 0 mm
23:04 24.9 °C 15.6 °C 1007.7 hPa Calm     56 % 0 mm
23:09 24.7 °C 15.6 °C 1008 hPa SSW 1.9 km/h   57 % 0 mm
23:14 24.4 °C 15.6 °C 1008 hPa SSW 5.6 km/h 1.1 km/h 58 % 0 mm
23:19 24.3 °C 15.3 °C 1007.7 hPa SSW 3.7 km/h 0.6 km/h 57 % 0 mm
23:24 24.4 °C 15.3 °C 1008 hPa Calm     57 % 0 mm
23:29 24.4 °C 15.7 °C 1007.7 hPa SSW 5.6 km/h 3.2 km/h 58 % 0 mm
23:34 24.3 °C 15.3 °C 1007.3 hPa SSW 5.6 km/h 0.6 km/h 57 % 0 mm
23:39 24.3 °C 15.3 °C 1007.3 hPa Calm     57 % 0 mm
23:44 24.3 °C 15.2 °C 1007.3 hPa Calm     57 % 0 mm
23:49 24.2 °C 15.2 °C 1007 hPa Calm     57 % 0 mm
23:54 24.2 °C 15.2 °C 1007 hPa SSW 3.7 km/h 1.1 km/h 57 % 0 mm
23:59 24.2 °C 15.2 °C 1007 hPa SSW 5.6 km/h 2.4 km/h 57 % 0 mm
Ararat Weather
Compliments of Weather Underground - 2.25 mb
Click here to send mail.


ABOUT

Live weather data from Ararat, Victoria, Australia, 3377
Data uploaded from Cumulus every 5 minutes to Weather Underground.
This site then downloads the raw data for formatting and display.
Metric and imperial data can be displayed. Graphs and historical data available.
Includes Sun and Moon times and rain image live from BOM.

Check out Ararat Weather on Facebook, Twitter and Google +

Help support ongoing costs by checking out the ads





Follow @AraratWeather